Airfield :
LOGIN :

Register | Disclaimer

   EN    FR    IT 

 










Legend :    VFR   Marginal VFR   IFR   Intensive IFR   Very Intensive IFR
Visi :
Ceiling :
>= 8 km
>= 3000ft
5 to 8 km
1000 to 3000 ft
1500m to 5 km
500 to 1000 ft
800 to 1500m
200 to 500 ft
< 800m
< 200 ft
Symbols :   Thunderstorms  Fog  Heavy snow  Heavy precipitations  Wind > 20 kt
SIGMETs :     Misc.  Thunderstorms  Icing  Turbulence  Mountain Waves  Volcanic Ashes







- Airport Elevation : 313 ft
- IATA code : LEH
- Download approach charts


LFOH - Le Havre Octeville

CURRENT METAR :
  • 161230Z AUTO 19014KT 160V220 9999 OVC033 07/03 Q1008 NOSIG

EXPIRED METARs :
  • 161200Z AUTO 19014KT 160V220 9999 FEW027 OVC036 06/03 Q1009 NOSIG
  • 161130Z AUTO 19011KT 9999 BKN026 OVC034 06/03 Q1009 NOSIG
  • 161100Z AUTO 19013KT 9999 BKN024 OVC032 06/02 Q1010 NOSIG
  • 161030Z AUTO 19011KT 9999 OVC029 06/02 Q1010 NOSIG
  • 161000Z AUTO 19011KT 9999 FEW020 OVC028 06/02 Q1011 NOSIG

TAF TAF LFOH
Valid from the 16 at 12:00 until the 17 at 12:00 UTC


161100Z 1612/1712 20012KT 9999 OVC030
BECMG 1615/1617 20015G25KT RA OVC013
TEMPO 1617/1620 26020G30KT 3000 OVC004
FM162000 30012KT 9999 SCT030
BECMG 1622/1701 20012KT
TEMPO 1701/1706 20018G28KT 3000 SHRA BKN008 BKN015CB
FM170600 30012KT 9999 SCT030
TEMPO 1706/1712 30020G30KT 3000 SHRA BKN008 BKN015CB
ATIS : +33 2 35 54 64 93
No reported NOTAMs for that airfield.



MET'MAP, your aeronautical weather chart ! - Copyright ORBIFLY December 2007 - Disclaimer

ORBIFLY MET'MAP TEAM :

Programming & Development : Alexandra Zaïnal
Concept & Development : Baudouin d'Aumeries
Co-Development & Prog : Marc-Olivier Méhu
Technical & hardware support : Manuel Goepfert

Contact : metmap@orbifly.com




SOURCES & CREDITS :

   NOAA